createdAt,value
2019-03-17T00:00:35.367Z,9.4
2019-03-17T00:01:56.706Z,9.3
2019-03-17T00:02:54.033Z,9.4
2019-03-17T00:04:03.408Z,9.4
2019-03-17T00:05:12.754Z,9.4
2019-03-17T00:06:22.060Z,9.4
2019-03-17T00:07:31.445Z,9.4
2019-03-17T00:08:40.764Z,9.4
2019-03-17T00:09:50.188Z,9.4
2019-03-17T00:10:59.420Z,9.4
2019-03-17T00:12:08.767Z,9.4
2019-03-17T00:13:18.116Z,9.4
2019-03-17T00:14:27.467Z,9.4
2019-03-17T00:15:36.798Z,9.4
2019-03-17T00:16:46.238Z,9.5
2019-03-17T00:17:55.503Z,9.5
2019-03-17T00:19:04.827Z,9.5
2019-03-17T00:20:14.148Z,9.5
2019-03-17T00:21:23.513Z,9.4
2019-03-17T00:22:32.844Z,9.5
2019-03-17T00:23:42.274Z,9.5
2019-03-17T00:24:51.526Z,9.5
2019-03-17T00:26:00.871Z,9.5
2019-03-17T00:27:10.215Z,9.5
2019-03-17T00:28:19.559Z,9.5
2019-03-17T00:29:28.907Z,9.5
2019-03-17T00:30:38.267Z,9.5
2019-03-17T00:31:47.781Z,9.5
2019-03-17T00:32:56.952Z,9.5
2019-03-17T00:34:06.290Z,9.6
2019-03-17T00:35:15.624Z,9.6
2019-03-17T00:36:24.959Z,9.6
2019-03-17T00:37:34.311Z,9.6
2019-03-17T00:38:43.644Z,9.5
2019-03-17T00:39:53.013Z,9.5
2019-03-17T00:41:02.374Z,9.5
2019-03-17T00:42:11.690Z,9.5
2019-03-17T00:43:21.044Z,9.5
2019-03-17T00:44:30.403Z,9.6
2019-03-17T00:45:39.738Z,9.6
2019-03-17T00:46:49.073Z,9.5
2019-03-17T00:47:58.428Z,9.5
2019-03-17T00:49:07.825Z,9.5
2019-03-17T00:50:17.104Z,9.5
2019-03-17T00:51:26.445Z,9.5
2019-03-17T00:52:35.826Z,9.5
2019-03-17T00:53:45.175Z,9.4
2019-03-17T00:54:54.508Z,9.5
2019-03-17T00:56:03.854Z,9.5
2019-03-17T00:57:13.162Z,9.5
2019-03-17T00:58:22.544Z,9.5
2019-03-17T00:59:31.859Z,9.5
2019-03-17T01:00:41.215Z,9.5
2019-03-17T01:01:50.546Z,9.5
2019-03-17T01:02:59.909Z,9.5
2019-03-17T01:04:09.246Z,9.6
2019-03-17T01:05:18.663Z,9.5
2019-03-17T01:06:27.927Z,9.6
2019-03-17T01:07:37.296Z,9.6
2019-03-17T01:08:46.610Z,9.6
2019-03-17T01:09:55.967Z,9.6
2019-03-17T01:11:05.303Z,9.5
2019-03-17T01:12:14.646Z,9.5
2019-03-17T01:13:24.120Z,9.5
2019-03-17T01:14:33.512Z,9.5
2019-03-17T01:15:43.935Z,9.5
2019-03-17T01:16:53.265Z,9.5
2019-03-17T01:18:02.688Z,9.6
2019-03-17T01:19:12.036Z,9.6
2019-03-17T01:20:21.309Z,9.5
2019-03-17T01:21:30.741Z,9.5
2019-03-17T01:22:40.085Z,9.5
2019-03-17T01:23:49.397Z,9.5
2019-03-17T01:24:58.679Z,9.5
2019-03-17T01:26:08.022Z,9.5
2019-03-17T01:27:17.388Z,9.4
2019-03-17T01:28:26.731Z,9.4
2019-03-17T01:29:36.063Z,9.4
2019-03-17T01:30:45.413Z,9.4
2019-03-17T01:31:54.788Z,9.4
2019-03-17T01:33:04.090Z,9.4
2019-03-17T01:34:13.435Z,9.4
2019-03-17T01:35:22.888Z,9.4
2019-03-17T01:36:32.143Z,9.4
2019-03-17T01:37:41.470Z,9.4
2019-03-17T01:38:50.810Z,9.3
2019-03-17T01:40:00.162Z,9.3
2019-03-17T01:41:09.497Z,9.4
2019-03-17T01:42:18.840Z,9.4
2019-03-17T01:43:28.369Z,9.4
2019-03-17T01:44:37.547Z,9.4
2019-03-17T01:45:46.862Z,9.4
2019-03-17T01:46:56.241Z,9.4
2019-03-17T01:48:05.559Z,9.4
2019-03-17T01:49:14.880Z,9.4
2019-03-17T01:50:24.227Z,9.4
2019-03-17T01:51:33.642Z,9.4
2019-03-17T01:52:42.917Z,9.4
2019-03-17T01:53:52.251Z,9.4
2019-03-17T01:55:01.605Z,9.4
2019-03-17T01:56:10.943Z,9.4
2019-03-17T01:58:29.635Z,9.4
2019-03-17T01:59:39.057Z,9.4
2019-03-17T02:00:48.361Z,9.4
2019-03-17T02:01:57.652Z,9.4
2019-03-17T02:03:07.095Z,9.4
2019-03-17T02:04:16.438Z,9.4
2019-03-17T02:05:25.710Z,9.4
2019-03-17T02:06:35.047Z,9.4
2019-03-17T02:07:44.374Z,9.4
2019-03-17T02:08:53.698Z,9.4
2019-03-17T02:10:03.077Z,9.4
2019-03-17T02:11:12.382Z,9.4
2019-03-17T02:12:21.725Z,9.4
2019-03-17T02:13:31.064Z,9.4
2019-03-17T02:14:40.414Z,9.3
2019-03-17T02:15:49.769Z,9.4
2019-03-17T02:16:59.110Z,9.4
2019-03-17T02:18:08.438Z,9.4
2019-03-17T02:19:17.779Z,9.3
2019-03-17T02:20:27.124Z,9.3
2019-03-17T02:21:36.707Z,9.5
2019-03-17T02:22:45.807Z,9.4
2019-03-17T02:23:55.139Z,9.4
2019-03-17T02:25:04.478Z,9.3
2019-03-17T02:26:13.819Z,9.4
2019-03-17T02:27:23.168Z,9.3
2019-03-17T02:28:32.548Z,9.3
2019-03-17T02:29:41.870Z,9.3
2019-03-17T02:30:51.202Z,9.3
2019-03-17T02:32:00.538Z,9.4
2019-03-17T02:33:09.863Z,9.4
2019-03-17T02:34:19.229Z,9.4
2019-03-17T02:35:38.388Z,9.3
2019-03-17T02:36:38.093Z,9.4
2019-03-17T02:37:47.291Z,9.4
2019-03-17T02:38:56.625Z,9.4
2019-03-17T02:40:05.977Z,9.4
2019-03-17T02:41:15.257Z,9.4
2019-03-17T02:42:24.679Z,9.4
2019-03-17T02:43:33.951Z,9.4
2019-03-17T02:44:43.287Z,9.4
2019-03-17T02:45:52.624Z,9.4
2019-03-17T02:47:01.975Z,9.4
2019-03-17T02:48:11.302Z,9.4
2019-03-17T02:49:20.654Z,9.5
2019-03-17T02:50:29.987Z,9.4
2019-03-17T02:51:39.365Z,9.4
2019-03-17T02:52:48.671Z,9.4
2019-03-17T02:53:58.033Z,9.4
2019-03-17T02:55:07.408Z,9.4
2019-03-17T02:56:16.699Z,9.4
2019-03-17T02:57:26.031Z,9.4
2019-03-17T02:58:35.413Z,9.4
2019-03-17T02:59:44.722Z,9.4
2019-03-17T03:00:54.065Z,9.5
2019-03-17T03:02:03.453Z,9.5
2019-03-17T03:04:22.122Z,9.5
2019-03-17T03:05:31.439Z,9.5
2019-03-17T03:06:40.798Z,9.5
2019-03-17T03:07:50.152Z,9.5
2019-03-17T03:08:59.460Z,9.5
2019-03-17T03:10:08.799Z,9.5
2019-03-17T03:11:18.159Z,9.6
2019-03-17T03:12:27.491Z,9.5
2019-03-17T03:13:36.846Z,9.5
2019-03-17T03:14:46.286Z,9.5
2019-03-17T03:15:55.590Z,9.5
2019-03-17T03:17:04.888Z,9.5
2019-03-17T03:18:14.216Z,9.5
2019-03-17T03:19:23.578Z,9.4
2019-03-17T03:20:32.896Z,9.4
2019-03-17T03:21:42.249Z,9.5
2019-03-17T03:22:51.593Z,9.5
2019-03-17T03:24:00.940Z,9.4
2019-03-17T03:25:10.290Z,9.4
2019-03-17T03:26:19.700Z,9.4
2019-03-17T03:27:28.986Z,9.5
2019-03-17T03:28:38.339Z,9.4
2019-03-17T03:29:47.811Z,9.4
2019-03-17T03:30:57.077Z,9.4
2019-03-17T03:32:06.339Z,9.4
2019-03-17T03:33:15.729Z,9.4
2019-03-17T03:34:25.025Z,9.4
2019-03-17T03:35:34.367Z,9.4
2019-03-17T03:36:43.733Z,9.4
2019-03-17T03:37:53.049Z,9.4
2019-03-17T03:39:02.427Z,9.4
2019-03-17T03:40:11.820Z,9.4
2019-03-17T03:41:21.108Z,9.4
2019-03-17T03:42:30.457Z,9.3
2019-03-17T03:43:39.758Z,9.4
2019-03-17T03:44:49.112Z,9.4
2019-03-17T03:45:58.506Z,9.3
2019-03-17T03:47:07.782Z,9.4
2019-03-17T03:48:17.119Z,9.3
2019-03-17T03:49:26.474Z,9.4
2019-03-17T03:50:35.798Z,9.3
2019-03-17T03:51:45.210Z,9.4
2019-03-17T03:52:54.482Z,9.4
2019-03-17T03:54:03.820Z,9.3
2019-03-17T03:55:13.165Z,9.3
2019-03-17T03:56:22.530Z,9.3
2019-03-17T03:57:31.897Z,9.3
2019-03-17T03:58:41.190Z,9.3
2019-03-17T03:59:50.607Z,9.4
2019-03-17T04:00:59.866Z,9.3
2019-03-17T04:02:09.368Z,9.3
2019-03-17T04:03:18.637Z,9.3
2019-03-17T04:04:28.100Z,9.3
2019-03-17T04:05:37.223Z,9.3
2019-03-17T04:06:46.582Z,9.3
2019-03-17T04:07:55.902Z,9.3
2019-03-17T04:09:05.238Z,9.2
2019-03-17T04:10:14.578Z,9.2
2019-03-17T04:11:23.921Z,9.2
2019-03-17T04:12:33.310Z,9.2
2019-03-17T04:13:42.609Z,9.1
2019-03-17T04:14:51.940Z,9.1
2019-03-17T04:16:01.460Z,9.1
2019-03-17T04:17:10.650Z,9.1
2019-03-17T04:18:19.970Z,9.1
2019-03-17T04:19:29.296Z,9
2019-03-17T04:20:38.635Z,9
2019-03-17T04:21:48.015Z,9.1
2019-03-17T04:22:57.416Z,9.1
2019-03-17T04:24:06.641Z,9.1
2019-03-17T04:25:16.059Z,9
2019-03-17T04:26:25.306Z,9.1
2019-03-17T04:27:34.679Z,9.1
2019-03-17T04:28:43.982Z,9
2019-03-17T04:29:53.351Z,9
2019-03-17T04:31:02.647Z,9
2019-03-17T04:32:11.996Z,9
2019-03-17T04:33:21.321Z,9
2019-03-17T04:34:30.731Z,9
2019-03-17T04:35:40.008Z,9
2019-03-17T04:36:49.542Z,9
2019-03-17T04:37:58.654Z,9
2019-03-17T04:39:08.213Z,9
2019-03-17T04:40:17.388Z,9
2019-03-17T04:41:26.675Z,9
2019-03-17T04:42:36.028Z,9
2019-03-17T04:43:45.342Z,8.9
2019-03-17T04:44:54.654Z,8.9
2019-03-17T04:46:03.983Z,8.9
2019-03-17T04:47:13.408Z,8.9
2019-03-17T04:48:22.652Z,9
2019-03-17T04:49:32.013Z,8.9
2019-03-17T04:50:41.394Z,8.9
2019-03-17T04:51:50.690Z,8.9
2019-03-17T04:52:59.974Z,8.9
2019-03-17T04:54:09.306Z,9
2019-03-17T04:55:18.649Z,8.9
2019-03-17T04:56:27.961Z,8.9
2019-03-17T04:57:37.296Z,8.9
2019-03-17T04:58:46.643Z,8.9
2019-03-17T04:59:55.948Z,8.9
2019-03-17T05:01:05.417Z,8.9
2019-03-17T05:02:14.640Z,8.9
2019-03-17T05:03:23.975Z,8.9
2019-03-17T05:04:33.293Z,9
2019-03-17T05:05:42.628Z,8.9
2019-03-17T05:06:53.063Z,8.9
2019-03-17T05:08:01.325Z,9
2019-03-17T05:09:10.603Z,8.9
2019-03-17T05:10:22.660Z,8.9
2019-03-17T05:11:29.361Z,8.9
2019-03-17T05:12:38.594Z,8.9
2019-03-17T05:13:47.927Z,8.9
2019-03-17T05:14:57.262Z,9
2019-03-17T05:16:06.823Z,9
2019-03-17T05:17:15.945Z,9
2019-03-17T05:18:25.287Z,9
2019-03-17T05:19:34.577Z,8.9
2019-03-17T05:20:43.912Z,8.9
2019-03-17T05:21:53.249Z,8.9
2019-03-17T05:23:02.565Z,9
2019-03-17T05:24:11.910Z,9
2019-03-17T05:25:21.256Z,9
2019-03-17T05:26:30.579Z,9
2019-03-17T05:27:39.905Z,9
2019-03-17T05:28:49.225Z,9
2019-03-17T05:29:58.710Z,9
2019-03-17T05:31:07.891Z,9
2019-03-17T05:32:17.303Z,9
2019-03-17T05:33:26.565Z,9.1
2019-03-17T05:34:36.039Z,9.1
2019-03-17T05:35:45.218Z,9.1
2019-03-17T05:37:05.258Z,9.1
2019-03-17T05:38:03.903Z,9.1
2019-03-17T05:39:13.220Z,9.1
2019-03-17T05:40:22.554Z,9.1
2019-03-17T05:41:31.934Z,9.1
2019-03-17T05:42:41.321Z,9.1
2019-03-17T05:43:50.563Z,9.1
2019-03-17T05:44:59.968Z,9.1
2019-03-17T05:46:09.237Z,9.1
2019-03-17T05:47:18.572Z,9.1
2019-03-17T05:48:28.097Z,9.1
2019-03-17T05:49:37.254Z,9.1
2019-03-17T05:50:46.674Z,9.1
2019-03-17T05:51:55.917Z,9.2
2019-03-17T05:53:05.373Z,9.2
2019-03-17T05:54:14.624Z,9.2
2019-03-17T05:55:23.923Z,9.2
2019-03-17T05:56:33.355Z,9.2
2019-03-17T05:57:42.621Z,9.2
2019-03-17T05:58:51.977Z,9.2
2019-03-17T06:00:01.582Z,9.2
2019-03-17T06:01:10.625Z,9.2
2019-03-17T06:02:19.950Z,9.2
2019-03-17T06:03:29.301Z,9.2
2019-03-17T06:04:38.638Z,9.2
2019-03-17T06:05:48.023Z,9.2
2019-03-17T06:06:57.382Z,9.2
2019-03-17T06:08:06.650Z,9.2
2019-03-17T06:09:15.991Z,9.2
2019-03-17T06:10:25.339Z,9.2
2019-03-17T06:11:34.793Z,9.2
2019-03-17T06:12:44.045Z,9.2
2019-03-17T06:13:53.353Z,9.2
2019-03-17T06:15:02.697Z,9.2
2019-03-17T06:16:12.069Z,9.2
2019-03-17T06:17:21.374Z,9.2
2019-03-17T06:18:30.735Z,9.2
2019-03-17T06:19:40.063Z,9.2
2019-03-17T06:20:49.399Z,9.2
2019-03-17T06:22:00.439Z,9.1
2019-03-17T06:23:08.194Z,9.2
2019-03-17T06:24:17.503Z,9.1
2019-03-17T06:25:26.779Z,9.2
2019-03-17T06:26:36.120Z,9.2
2019-03-17T06:27:45.471Z,9.2
2019-03-17T06:28:54.812Z,9.2
2019-03-17T06:30:04.158Z,9.2
2019-03-17T06:31:13.500Z,9.3
2019-03-17T06:32:22.841Z,9.2
2019-03-17T06:33:32.185Z,9.3
2019-03-17T06:34:41.573Z,9.2
2019-03-17T06:35:50.887Z,9.3
2019-03-17T06:37:00.269Z,9.2
2019-03-17T06:38:09.574Z,9.2
2019-03-17T06:39:18.916Z,9.3
2019-03-17T06:40:28.285Z,9.3
2019-03-17T06:41:37.593Z,9.2
2019-03-17T06:42:46.952Z,9.2
2019-03-17T06:43:56.292Z,9.3
2019-03-17T06:45:05.648Z,9.3
2019-03-17T06:46:15.036Z,9.3
2019-03-17T06:47:24.352Z,9.3
2019-03-17T06:48:33.685Z,9.3
2019-03-17T06:49:43.032Z,9.3
2019-03-17T06:50:52.366Z,9.3
2019-03-17T06:52:01.709Z,9.3
2019-03-17T06:53:11.058Z,9.3
2019-03-17T06:54:20.403Z,9.3
2019-03-17T06:55:29.766Z,9.4
2019-03-17T06:56:39.133Z,9.4
2019-03-17T06:57:48.469Z,9.3
2019-03-17T06:58:57.864Z,9.4
2019-03-17T07:00:07.190Z,9.3
2019-03-17T07:01:16.514Z,9.3
2019-03-17T07:02:25.870Z,9.4
2019-03-17T07:03:35.222Z,9.4
2019-03-17T07:04:44.622Z,9.4
2019-03-17T07:05:53.946Z,9.4
2019-03-17T07:07:03.388Z,9.5
2019-03-17T07:08:12.648Z,9.5
2019-03-17T07:09:22.002Z,9.4
2019-03-17T07:10:31.429Z,9.4
2019-03-17T07:11:40.727Z,9.5
2019-03-17T07:12:50.084Z,9.6
2019-03-17T07:13:59.431Z,9.7
2019-03-17T07:15:08.803Z,9.7
2019-03-17T07:16:18.211Z,9.6
2019-03-17T07:17:27.543Z,9.5
2019-03-17T07:18:36.944Z,9.6
2019-03-17T07:19:46.355Z,9.6
2019-03-17T07:20:55.638Z,9.6
2019-03-17T07:22:05.001Z,9.5
2019-03-17T07:23:14.378Z,9.5
2019-03-17T07:24:23.734Z,9.6
2019-03-17T07:25:33.103Z,9.5
2019-03-17T07:26:42.474Z,9.6
2019-03-17T07:27:51.887Z,9.6
2019-03-17T07:29:01.211Z,9.5
2019-03-17T07:30:10.569Z,9.6
2019-03-17T07:31:19.951Z,9.6
2019-03-17T07:32:29.302Z,9.7
2019-03-17T07:33:38.652Z,9.7
2019-03-17T07:34:48.037Z,9.8
2019-03-17T07:35:57.427Z,9.9
2019-03-17T07:37:06.785Z,9.9
2019-03-17T07:38:16.271Z,9.9
2019-03-17T07:39:25.555Z,10
2019-03-17T07:40:34.952Z,10
2019-03-17T07:41:44.320Z,10
2019-03-17T07:42:53.749Z,9.9
2019-03-17T07:44:03.142Z,9.8
2019-03-17T07:45:12.484Z,9.9
2019-03-17T07:46:21.878Z,9.9
2019-03-17T07:47:31.302Z,10.1
2019-03-17T07:48:40.615Z,10.2
2019-03-17T07:49:50.003Z,10.2
2019-03-17T07:50:59.425Z,10.2
2019-03-17T07:52:08.871Z,10.5
2019-03-17T07:53:18.203Z,10.5
2019-03-17T07:54:27.606Z,10.6
2019-03-17T07:55:37.023Z,10.7
2019-03-17T07:56:46.465Z,10.6
2019-03-17T07:57:55.875Z,10.7
2019-03-17T07:59:05.278Z,11.2
2019-03-17T08:00:14.710Z,11
2019-03-17T08:01:24.170Z,11.2
2019-03-17T08:02:33.613Z,11.3
2019-03-17T08:03:43.028Z,11.4
2019-03-17T08:04:52.463Z,11.3
2019-03-17T08:06:01.951Z,11.3
2019-03-17T08:07:11.452Z,11.6
2019-03-17T08:08:20.836Z,11
2019-03-17T08:09:30.292Z,11.4
2019-03-17T08:10:39.784Z,11.4
2019-03-17T08:11:49.217Z,11.5
2019-03-17T08:12:58.733Z,11.6
2019-03-17T08:14:08.163Z,11.7
2019-03-17T08:15:17.672Z,11.6
2019-03-17T08:16:27.097Z,11.8
2019-03-17T08:17:36.570Z,11.8
2019-03-17T08:18:46.040Z,12.2
2019-03-17T08:19:55.569Z,12
2019-03-17T08:21:05.216Z,11.9
2019-03-17T08:22:14.491Z,11.8
2019-03-17T08:23:24.013Z,12.1
2019-03-17T08:24:33.569Z,11.9
2019-03-17T08:25:42.946Z,12.3
2019-03-17T08:26:52.525Z,11.9
2019-03-17T08:28:01.941Z,12.3
2019-03-17T08:29:11.408Z,12.1
2019-03-17T08:30:20.914Z,12.4
2019-03-17T08:31:30.411Z,12.5
2019-03-17T08:32:41.318Z,12.5
2019-03-17T08:33:49.421Z,12.1
2019-03-17T08:34:58.931Z,12.4
2019-03-17T08:36:08.438Z,12.6
2019-03-17T08:37:17.926Z,12.9
2019-03-17T08:38:27.426Z,12.9
2019-03-17T08:39:36.921Z,12.7
2019-03-17T08:40:46.500Z,12.4
2019-03-17T08:41:55.936Z,12.6
2019-03-17T08:43:05.433Z,12.7
2019-03-17T08:44:14.924Z,12.3
2019-03-17T08:45:24.489Z,12.6
2019-03-17T08:46:33.912Z,13
2019-03-17T08:47:56.492Z,13
2019-03-17T08:48:52.908Z,12.4
2019-03-17T08:50:02.483Z,12.1
2019-03-17T08:51:11.920Z,12.2
2019-03-17T08:52:21.457Z,12.6
2019-03-17T08:53:30.952Z,12.8
2019-03-17T08:54:40.523Z,13
2019-03-17T08:55:50.022Z,12.7
2019-03-17T08:56:59.541Z,12.9
2019-03-17T08:58:09.025Z,13
2019-03-17T08:59:18.528Z,12.6
2019-03-17T09:00:28.055Z,13
2019-03-17T09:01:37.594Z,13
2019-03-17T09:02:47.177Z,13.3
2019-03-17T09:03:56.677Z,13.8
2019-03-17T09:05:06.231Z,13.8
2019-03-17T09:06:15.765Z,14.2
2019-03-17T09:07:27.729Z,13.8
2019-03-17T09:08:35.532Z,14.3
2019-03-17T09:09:44.404Z,14.9
2019-03-17T09:10:53.981Z,14.4
2019-03-17T09:12:03.542Z,14.3
2019-03-17T09:13:13.102Z,13.8
2019-03-17T09:14:22.693Z,14.4
2019-03-17T09:15:32.303Z,14.4
2019-03-17T09:16:41.824Z,13.9
2019-03-17T09:17:51.559Z,13.7
2019-03-17T09:19:01.023Z,13.6
2019-03-17T09:20:10.552Z,14.1
2019-03-17T09:21:20.148Z,14.1
2019-03-17T09:22:29.709Z,14.3
2019-03-17T09:23:42.365Z,13.9
2019-03-17T09:24:48.902Z,14.4
2019-03-17T09:25:58.445Z,14.4
2019-03-17T09:27:08.032Z,14.5
2019-03-17T09:28:17.713Z,14.4
2019-03-17T09:29:27.199Z,14
2019-03-17T09:30:36.766Z,14.6
2019-03-17T09:31:46.398Z,14.6
2019-03-17T09:32:55.946Z,14.2
2019-03-17T09:34:05.557Z,14.1
2019-03-17T09:35:15.117Z,13.7
2019-03-17T09:36:24.713Z,13.9
2019-03-17T09:37:34.288Z,14.2
2019-03-17T09:38:47.381Z,14.1
2019-03-17T09:39:53.371Z,14.3
2019-03-17T09:41:02.968Z,14.1
2019-03-17T09:42:12.575Z,13.9
2019-03-17T09:43:22.170Z,13.9
2019-03-17T09:44:31.604Z,14.3
2019-03-17T09:45:41.366Z,14.9
2019-03-17T09:46:50.763Z,15.4
2019-03-17T09:48:00.396Z,15.2
2019-03-17T09:49:10.052Z,14.6
2019-03-17T09:50:19.433Z,14.7
2019-03-17T09:51:29.015Z,14.2
2019-03-17T09:52:38.577Z,13.6
2019-03-17T09:53:48.259Z,13.8
2019-03-17T09:54:57.704Z,14.1
2019-03-17T09:56:07.247Z,13.9
2019-03-17T09:57:16.817Z,13.6
2019-03-17T09:58:26.326Z,13.4
2019-03-17T09:59:35.895Z,13.2
2019-03-17T10:00:45.458Z,13.2
2019-03-17T10:01:54.943Z,13.2
2019-03-17T10:03:04.470Z,13.4
2019-03-17T10:04:13.975Z,13.2
2019-03-17T10:05:23.486Z,13.1
2019-03-17T10:06:33.167Z,12.9
2019-03-17T10:07:42.503Z,13.2
2019-03-17T10:08:59.682Z,13.1
2019-03-17T10:10:01.498Z,13.2
2019-03-17T10:11:10.997Z,13.2
2019-03-17T10:12:20.498Z,13.3
2019-03-17T10:13:29.992Z,13
2019-03-17T10:14:39.493Z,13.2
2019-03-17T10:15:49.156Z,13.3
2019-03-17T10:16:58.546Z,13.3
2019-03-17T10:18:07.962Z,13
2019-03-17T10:19:17.622Z,12.8
2019-03-17T10:20:27.016Z,13.1
2019-03-17T10:21:36.600Z,12.9
2019-03-17T10:22:45.898Z,13
2019-03-17T10:23:55.399Z,13
2019-03-17T10:25:04.835Z,13.1
2019-03-17T10:26:14.304Z,12.9
2019-03-17T10:27:23.779Z,13
2019-03-17T10:28:35.054Z,13
2019-03-17T10:29:42.724Z,13
2019-03-17T10:30:52.193Z,12.8
2019-03-17T10:32:01.686Z,12.9
2019-03-17T10:33:11.133Z,13
2019-03-17T10:34:20.614Z,12.8
2019-03-17T10:35:30.080Z,12.8
2019-03-17T10:36:39.722Z,12.7
2019-03-17T10:37:49.013Z,12.8
2019-03-17T10:38:58.543Z,12.9
2019-03-17T10:40:07.925Z,12.8
2019-03-17T10:41:17.488Z,12.8
2019-03-17T10:42:26.974Z,12.8
2019-03-17T10:43:36.322Z,12.8
2019-03-17T10:44:45.789Z,12.7
2019-03-17T10:45:55.272Z,12.8
2019-03-17T10:47:04.754Z,12.9
2019-03-17T10:48:14.224Z,12.8
2019-03-17T10:49:23.663Z,12.7
2019-03-17T10:50:33.186Z,12.9
2019-03-17T10:51:42.567Z,12.9
2019-03-17T10:52:52.027Z,12.8
2019-03-17T10:54:01.489Z,12.7
2019-03-17T10:55:10.966Z,12.6
2019-03-17T10:56:20.441Z,12.7
2019-03-17T10:57:29.905Z,12.8
2019-03-17T10:58:39.393Z,12.9
2019-03-17T10:59:48.822Z,12.9
2019-03-17T11:00:58.288Z,12.9
2019-03-17T11:02:07.758Z,12.9
2019-03-17T11:03:17.273Z,13
2019-03-17T11:04:26.703Z,13
2019-03-17T11:06:45.634Z,12.7
2019-03-17T11:07:55.097Z,12.8
2019-03-17T11:09:04.747Z,12.9
2019-03-17T11:10:14.045Z,13
2019-03-17T11:11:23.544Z,13
2019-03-17T11:12:33.022Z,12.9
2019-03-17T11:13:42.431Z,12.7
2019-03-17T11:14:51.896Z,12.8
2019-03-17T11:16:01.396Z,12.7
2019-03-17T11:17:10.841Z,12.8
2019-03-17T11:18:20.339Z,12.8
2019-03-17T11:19:29.780Z,12.9
2019-03-17T11:20:39.265Z,12.9
2019-03-17T11:21:48.748Z,12.7
2019-03-17T11:22:58.228Z,12.9
2019-03-17T11:24:07.663Z,12.9
2019-03-17T11:25:17.127Z,12.8
2019-03-17T11:26:26.591Z,12.8
2019-03-17T11:27:36.076Z,12.9
2019-03-17T11:28:45.544Z,12.9
2019-03-17T11:29:55.005Z,12.9
2019-03-17T11:31:04.483Z,12.7
2019-03-17T11:32:13.973Z,12.9
2019-03-17T11:33:23.469Z,13
2019-03-17T11:34:32.898Z,12.9
2019-03-17T11:35:42.375Z,12.9
2019-03-17T11:36:51.975Z,13.1
2019-03-17T11:38:01.393Z,13.1
2019-03-17T11:39:10.899Z,13.2
2019-03-17T11:40:20.303Z,13.1
2019-03-17T11:41:29.756Z,13.1
2019-03-17T11:42:39.268Z,13.1
2019-03-17T11:43:48.721Z,13.1
2019-03-17T11:44:58.217Z,12.9
2019-03-17T11:46:07.724Z,13
2019-03-17T11:47:17.159Z,12.9
2019-03-17T11:48:26.617Z,12.9
2019-03-17T11:49:36.226Z,12.8
2019-03-17T11:50:45.546Z,12.8
2019-03-17T11:51:55.058Z,12.6
2019-03-17T11:53:04.516Z,12.7
2019-03-17T11:54:13.948Z,12.7
2019-03-17T11:55:23.427Z,12.6
2019-03-17T11:56:32.908Z,12.6
2019-03-17T11:57:42.372Z,12.6
2019-03-17T11:58:51.809Z,12.5
2019-03-17T12:00:01.270Z,12.6
2019-03-17T12:01:10.668Z,12.5
2019-03-17T12:02:26.269Z,12.5
2019-03-17T12:03:29.588Z,12.5
2019-03-17T12:04:39.026Z,12.5
2019-03-17T12:05:48.477Z,12.5
2019-03-17T12:06:57.950Z,12.4
2019-03-17T12:08:07.374Z,12.5
2019-03-17T12:09:28.064Z,12.6
2019-03-17T12:10:26.363Z,12.6
2019-03-17T12:11:35.763Z,12.6
2019-03-17T12:12:45.198Z,12.6
2019-03-17T12:13:54.632Z,12.5
2019-03-17T12:15:04.083Z,12.6
2019-03-17T12:16:13.530Z,12.4
2019-03-17T12:17:22.981Z,12.6
2019-03-17T12:18:32.499Z,12.5
2019-03-17T12:19:41.912Z,12.6
2019-03-17T12:20:51.468Z,12.7
2019-03-17T12:22:08.726Z,12.7
2019-03-17T12:23:10.248Z,12.7
2019-03-17T12:24:19.778Z,12.6
2019-03-17T12:25:29.152Z,12.6
2019-03-17T12:26:38.643Z,12.5
2019-03-17T12:27:48.061Z,12.5
2019-03-17T12:28:57.514Z,12.6
2019-03-17T12:30:06.948Z,12.5
2019-03-17T12:31:16.581Z,12.5
2019-03-17T12:32:25.843Z,12.6
2019-03-17T12:33:35.296Z,12.6
2019-03-17T12:34:44.774Z,12.6
2019-03-17T12:35:54.209Z,12.5
2019-03-17T12:37:03.680Z,12.5
2019-03-17T12:38:13.106Z,12.5
2019-03-17T12:39:22.563Z,12.4
2019-03-17T12:40:32.028Z,12.4
2019-03-17T12:41:41.455Z,12.4
2019-03-17T12:42:50.997Z,12.4
2019-03-17T12:44:00.328Z,12.4
2019-03-17T12:45:09.833Z,12.4
2019-03-17T12:46:19.204Z,12.4
2019-03-17T12:47:28.672Z,12.4
2019-03-17T12:48:38.110Z,12.3
2019-03-17T12:49:47.637Z,12.3
2019-03-17T12:50:56.998Z,12.3
2019-03-17T12:52:06.433Z,12.3
2019-03-17T12:53:15.859Z,11.7
2019-03-17T12:54:25.365Z,10.8
2019-03-17T12:55:34.726Z,10.2
2019-03-17T12:56:44.129Z,9.8
2019-03-17T12:57:53.567Z,9.4
2019-03-17T12:59:03.027Z,8.9
2019-03-17T13:00:12.412Z,8.6
2019-03-17T13:01:21.805Z,8.5
2019-03-17T13:02:31.314Z,8.4
2019-03-17T13:03:40.587Z,8.4
2019-03-17T13:04:49.989Z,8.4
2019-03-17T13:05:59.358Z,8.4
2019-03-17T13:07:08.748Z,8.4
2019-03-17T13:08:18.179Z,8.4
2019-03-17T13:09:27.518Z,8.4
2019-03-17T13:10:36.866Z,8.5
2019-03-17T13:11:46.332Z,8.5
2019-03-17T13:12:55.609Z,8.4
2019-03-17T13:14:06.833Z,8.4
2019-03-17T13:15:14.323Z,8.4
2019-03-17T13:16:23.755Z,8.4
2019-03-17T13:17:33.053Z,8.4
2019-03-17T13:18:42.397Z,8.4
2019-03-17T13:19:51.755Z,8.4
2019-03-17T13:21:01.159Z,8.3
2019-03-17T13:22:10.455Z,8.3
2019-03-17T13:23:19.806Z,8.3
2019-03-17T13:24:29.151Z,8.2
2019-03-17T13:25:38.522Z,8.3
2019-03-17T13:26:47.981Z,8.2
2019-03-17T13:27:57.224Z,8.1
2019-03-17T13:29:06.586Z,8.1
2019-03-17T13:30:15.851Z,8.1
2019-03-17T13:31:25.200Z,8.1
2019-03-17T13:32:34.552Z,8.1
2019-03-17T13:33:43.859Z,8
2019-03-17T13:34:53.243Z,7.9
2019-03-17T13:36:02.570Z,8
2019-03-17T13:37:11.948Z,8
2019-03-17T13:38:21.249Z,8
2019-03-17T13:39:30.504Z,8
2019-03-17T13:40:40.094Z,8
2019-03-17T13:41:49.182Z,8
2019-03-17T13:42:58.490Z,8
2019-03-17T13:44:07.824Z,8
2019-03-17T13:45:17.143Z,8
2019-03-17T13:46:26.471Z,8.1
2019-03-17T13:47:35.902Z,8.1
2019-03-17T13:48:45.135Z,8
2019-03-17T13:49:54.484Z,8
2019-03-17T13:51:03.765Z,7.9
2019-03-17T13:52:13.139Z,8
2019-03-17T13:53:23.002Z,8
2019-03-17T13:54:31.731Z,8.1
2019-03-17T13:55:41.177Z,8.1
2019-03-17T13:56:50.385Z,8.1
2019-03-17T13:57:59.699Z,8.1
2019-03-17T13:59:09.014Z,8
2019-03-17T14:00:18.360Z,8
2019-03-17T14:01:27.664Z,8
2019-03-17T14:02:36.991Z,7.9
2019-03-17T14:03:46.389Z,7.9
2019-03-17T14:04:55.620Z,7.9
2019-03-17T14:06:04.934Z,7.8
2019-03-17T14:07:14.272Z,7.9
2019-03-17T14:08:23.587Z,7.9
2019-03-17T14:09:35.369Z,7.9
2019-03-17T14:10:42.242Z,7.8
2019-03-17T14:11:51.676Z,7.8
2019-03-17T14:13:00.860Z,7.8
2019-03-17T14:14:10.180Z,7.8
2019-03-17T14:15:19.500Z,7.8
2019-03-17T14:16:28.812Z,7.8
2019-03-17T14:17:38.122Z,7.8
2019-03-17T14:18:47.489Z,7.8
2019-03-17T14:19:56.789Z,7.8
2019-03-17T14:21:06.080Z,7.8
2019-03-17T14:22:15.400Z,7.8
2019-03-17T14:23:24.732Z,7.7
2019-03-17T14:24:34.031Z,7.8
2019-03-17T14:25:43.329Z,7.8
2019-03-17T14:26:52.659Z,7.8
2019-03-17T14:28:01.981Z,7.8
2019-03-17T14:29:11.282Z,7.8
2019-03-17T14:30:20.637Z,7.8
2019-03-17T14:31:29.977Z,7.8
2019-03-17T14:32:39.361Z,7.8
2019-03-17T14:34:57.851Z,7.8
2019-03-17T14:36:07.183Z,7.9
2019-03-17T14:37:16.501Z,7.8
2019-03-17T14:38:25.808Z,7.8
2019-03-17T14:39:35.131Z,7.8
2019-03-17T14:40:53.042Z,7.8
2019-03-17T14:41:53.728Z,7.9
2019-03-17T14:43:03.033Z,7.8
2019-03-17T14:44:12.376Z,7.8
2019-03-17T14:45:21.655Z,7.8
2019-03-17T14:46:30.982Z,7.8
2019-03-17T14:47:40.348Z,7.8
2019-03-17T14:48:49.599Z,7.8
2019-03-17T14:49:58.908Z,7.7
2019-03-17T14:51:08.218Z,7.7
2019-03-17T14:52:17.651Z,7.8
2019-03-17T14:53:26.853Z,7.7
2019-03-17T14:54:36.167Z,7.8
2019-03-17T14:55:45.519Z,7.7
2019-03-17T14:56:54.884Z,7.8
2019-03-17T14:58:04.092Z,7.8
2019-03-17T14:59:13.408Z,7.8
2019-03-17T15:00:22.722Z,7.8
2019-03-17T15:01:32.026Z,7.9
2019-03-17T15:02:41.435Z,7.9
2019-03-17T15:03:50.652Z,7.8
2019-03-17T15:04:59.975Z,7.8
2019-03-17T15:06:09.302Z,7.9
2019-03-17T15:07:18.607Z,7.8
2019-03-17T15:08:27.967Z,7.9
2019-03-17T15:09:37.255Z,7.9
2019-03-17T15:10:46.593Z,7.9
2019-03-17T15:11:55.877Z,7.9
2019-03-17T15:13:05.194Z,8
2019-03-17T15:14:14.508Z,7.9
2019-03-17T15:15:23.834Z,8
2019-03-17T15:16:33.146Z,8
2019-03-17T15:17:42.467Z,8
2019-03-17T15:18:51.806Z,8
2019-03-17T15:20:01.215Z,8
2019-03-17T15:21:10.479Z,8
2019-03-17T15:22:19.744Z,8.1
2019-03-17T15:23:29.146Z,8.1
2019-03-17T15:24:38.426Z,8.1
2019-03-17T15:25:47.755Z,8.1
2019-03-17T15:26:57.040Z,8.2
2019-03-17T15:28:06.388Z,8.1
2019-03-17T15:29:15.692Z,8.1
2019-03-17T15:30:25.040Z,8.1
2019-03-17T15:31:34.340Z,8.1
2019-03-17T15:32:43.689Z,8.1
2019-03-17T15:33:53.008Z,8.1
2019-03-17T15:35:02.375Z,8.1
2019-03-17T15:36:12.013Z,8.2
2019-03-17T15:37:20.988Z,8.2
2019-03-17T15:38:30.284Z,8.2
2019-03-17T15:39:39.675Z,8.2
2019-03-17T15:40:48.948Z,8.2
2019-03-17T15:41:58.295Z,8.1
2019-03-17T15:43:07.584Z,8.1
2019-03-17T15:44:16.984Z,8.2
2019-03-17T15:45:26.238Z,8.2
2019-03-17T15:46:35.638Z,8.1
2019-03-17T15:47:44.884Z,8.1
2019-03-17T15:48:54.239Z,8.2
2019-03-17T15:50:03.564Z,8.2
2019-03-17T15:51:20.268Z,8.2
2019-03-17T15:52:22.203Z,8.1
2019-03-17T15:53:31.625Z,8.1
2019-03-17T15:54:40.877Z,8.1
2019-03-17T15:55:50.146Z,8.2